sensor_id;sensor_type;location;lat;lon;timestamp;P1;durP1;ratioP1;P2;durP2;ratioP2
41546;SDS011;27271;45.412;10.852;2024-03-02T00:01:05;4.85;;;2.10;;
41546;SDS011;27271;45.412;10.852;2024-03-02T00:04:28;10.50;;;2.80;;
41546;SDS011;27271;45.412;10.852;2024-03-02T00:07:54;7.55;;;2.30;;
41546;SDS011;27271;45.412;10.852;2024-03-02T00:11:18;6.05;;;2.15;;
41546;SDS011;27271;45.412;10.852;2024-03-02T00:14:40;6.50;;;2.40;;
41546;SDS011;27271;45.412;10.852;2024-03-02T00:18:02;5.63;;;2.08;;
41546;SDS011;27271;45.412;10.852;2024-03-02T00:21:26;6.30;;;2.35;;
41546;SDS011;27271;45.412;10.852;2024-03-02T00:24:51;8.02;;;2.35;;
41546;SDS011;27271;45.412;10.852;2024-03-02T00:28:13;5.60;;;2.35;;
41546;SDS011;27271;45.412;10.852;2024-03-02T00:31:49;8.65;;;2.58;;
41546;SDS011;27271;45.412;10.852;2024-03-02T00:35:12;7.53;;;2.33;;
41546;SDS011;27271;45.412;10.852;2024-03-02T00:38:47;10.88;;;4.00;;
41546;SDS011;27271;45.412;10.852;2024-03-02T00:42:11;8.25;;;2.33;;
41546;SDS011;27271;45.412;10.852;2024-03-02T00:45:33;7.45;;;2.30;;
41546;SDS011;27271;45.412;10.852;2024-03-02T00:48:59;4.80;;;2.00;;
41546;SDS011;27271;45.412;10.852;2024-03-02T00:52:23;7.38;;;2.03;;
41546;SDS011;27271;45.412;10.852;2024-03-02T00:55:46;6.63;;;2.15;;
41546;SDS011;27271;45.412;10.852;2024-03-02T00:59:12;8.27;;;2.00;;
41546;SDS011;27271;45.412;10.852;2024-03-02T01:02:34;6.15;;;2.05;;
41546;SDS011;27271;45.412;10.852;2024-03-02T01:05:57;5.57;;;1.80;;
41546;SDS011;27271;45.412;10.852;2024-03-02T01:09:19;7.32;;;1.55;;
41546;SDS011;27271;45.412;10.852;2024-03-02T01:12:42;7.35;;;1.60;;
41546;SDS011;27271;45.412;10.852;2024-03-02T01:16:04;5.57;;;1.40;;
41546;SDS011;27271;45.412;10.852;2024-03-02T01:19:26;7.55;;;1.95;;
41546;SDS011;27271;45.412;10.852;2024-03-02T01:22:48;4.38;;;1.70;;
41546;SDS011;27271;45.412;10.852;2024-03-02T01:26:10;3.95;;;1.40;;
41546;SDS011;27271;45.412;10.852;2024-03-02T01:29:32;5.75;;;1.65;;
41546;SDS011;27271;45.412;10.852;2024-03-02T01:32:56;3.00;;;1.35;;
41546;SDS011;27271;45.412;10.852;2024-03-02T01:36:20;3.15;;;1.10;;
41546;SDS011;27271;45.412;10.852;2024-03-02T01:39:42;3.30;;;1.42;;
41546;SDS011;27271;45.412;10.852;2024-03-02T01:43:05;5.70;;;1.25;;
41546;SDS011;27271;45.412;10.852;2024-03-02T01:46:30;5.07;;;1.30;;
41546;SDS011;27271;45.412;10.852;2024-03-02T01:49:52;3.88;;;1.25;;
41546;SDS011;27271;45.412;10.852;2024-03-02T01:53:14;8.60;;;1.52;;
41546;SDS011;27271;45.412;10.852;2024-03-02T01:56:36;5.57;;;1.30;;
41546;SDS011;27271;45.412;10.852;2024-03-02T01:59:58;6.93;;;1.67;;
41546;SDS011;27271;45.412;10.852;2024-03-02T02:03:32;5.20;;;1.80;;
41546;SDS011;27271;45.412;10.852;2024-03-02T02:06:54;4.78;;;1.55;;
41546;SDS011;27271;45.412;10.852;2024-03-02T02:10:16;4.75;;;1.35;;
41546;SDS011;27271;45.412;10.852;2024-03-02T02:13:38;3.20;;;1.08;;
41546;SDS011;27271;45.412;10.852;2024-03-02T02:17:00;3.70;;;1.40;;
41546;SDS011;27271;45.412;10.852;2024-03-02T02:20:23;5.15;;;1.20;;
41546;SDS011;27271;45.412;10.852;2024-03-02T02:23:46;3.97;;;1.30;;
41546;SDS011;27271;45.412;10.852;2024-03-02T02:27:09;4.80;;;1.75;;
41546;SDS011;27271;45.412;10.852;2024-03-02T02:30:32;7.38;;;1.58;;
41546;SDS011;27271;45.412;10.852;2024-03-02T02:33:55;4.82;;;1.42;;
41546;SDS011;27271;45.412;10.852;2024-03-02T02:37:17;6.13;;;1.40;;
41546;SDS011;27271;45.412;10.852;2024-03-02T02:40:39;3.92;;;1.40;;
41546;SDS011;27271;45.412;10.852;2024-03-02T02:44:01;2.78;;;1.17;;
41546;SDS011;27271;45.412;10.852;2024-03-02T02:47:23;5.10;;;1.27;;
41546;SDS011;27271;45.412;10.852;2024-03-02T02:50:47;3.90;;;1.10;;
41546;SDS011;27271;45.412;10.852;2024-03-02T02:54:09;3.65;;;1.23;;
41546;SDS011;27271;45.412;10.852;2024-03-02T02:57:32;6.10;;;1.35;;
41546;SDS011;27271;45.412;10.852;2024-03-02T03:00:59;3.42;;;0.95;;
41546;SDS011;27271;45.412;10.852;2024-03-02T03:04:21;3.38;;;0.88;;
41546;SDS011;27271;45.412;10.852;2024-03-02T03:07:43;3.47;;;1.33;;
41546;SDS011;27271;45.412;10.852;2024-03-02T03:11:06;3.60;;;1.30;;
41546;SDS011;27271;45.412;10.852;2024-03-02T03:14:29;2.30;;;1.38;;
41546;SDS011;27271;45.412;10.852;2024-03-02T03:17:51;5.57;;;1.25;;
41546;SDS011;27271;45.412;10.852;2024-03-02T03:21:13;2.35;;;1.00;;
41546;SDS011;27271;45.412;10.852;2024-03-02T03:24:35;2.50;;;1.00;;
41546;SDS011;27271;45.412;10.852;2024-03-02T03:27:57;7.68;;;1.30;;
41546;SDS011;27271;45.412;10.852;2024-03-02T03:31:19;2.35;;;1.05;;
41546;SDS011;27271;45.412;10.852;2024-03-02T03:34:41;2.90;;;1.30;;
41546;SDS011;27271;45.412;10.852;2024-03-02T03:38:03;3.20;;;1.33;;
41546;SDS011;27271;45.412;10.852;2024-03-02T03:41:25;4.10;;;1.17;;
41546;SDS011;27271;45.412;10.852;2024-03-02T03:44:47;3.25;;;1.90;;
41546;SDS011;27271;45.412;10.852;2024-03-02T03:48:09;5.90;;;1.40;;
41546;SDS011;27271;45.412;10.852;2024-03-02T03:51:31;8.90;;;1.77;;
41546;SDS011;27271;45.412;10.852;2024-03-02T03:54:54;4.55;;;1.10;;
41546;SDS011;27271;45.412;10.852;2024-03-02T03:58:16;7.53;;;2.55;;
41546;SDS011;27271;45.412;10.852;2024-03-02T04:01:43;3.70;;;1.40;;
41546;SDS011;27271;45.412;10.852;2024-03-02T04:05:05;5.13;;;1.40;;
41546;SDS011;27271;45.412;10.852;2024-03-02T04:08:30;5.38;;;1.50;;
41546;SDS011;27271;45.412;10.852;2024-03-02T04:11:53;5.78;;;1.92;;
41546;SDS011;27271;45.412;10.852;2024-03-02T04:15:15;9.68;;;1.95;;
41546;SDS011;27271;45.412;10.852;2024-03-02T04:18:37;4.97;;;1.88;;
41546;SDS011;27271;45.412;10.852;2024-03-02T04:22:01;3.03;;;1.17;;
41546;SDS011;27271;45.412;10.852;2024-03-02T04:25:35;6.63;;;1.98;;
41546;SDS011;27271;45.412;10.852;2024-03-02T04:28:57;5.63;;;1.60;;
41546;SDS011;27271;45.412;10.852;2024-03-02T04:32:19;6.18;;;1.65;;
41546;SDS011;27271;45.412;10.852;2024-03-02T04:35:42;9.38;;;1.92;;
41546;SDS011;27271;45.412;10.852;2024-03-02T04:39:04;7.00;;;1.77;;
41546;SDS011;27271;45.412;10.852;2024-03-02T04:42:26;6.82;;;1.63;;
41546;SDS011;27271;45.412;10.852;2024-03-02T04:45:48;6.75;;;1.70;;
41546;SDS011;27271;45.412;10.852;2024-03-02T04:49:10;5.03;;;1.60;;
41546;SDS011;27271;45.412;10.852;2024-03-02T04:52:32;7.38;;;1.75;;
41546;SDS011;27271;45.412;10.852;2024-03-02T04:55:54;10.18;;;2.00;;
41546;SDS011;27271;45.412;10.852;2024-03-02T04:59:17;5.15;;;1.98;;
41546;SDS011;27271;45.412;10.852;2024-03-02T05:02:40;6.90;;;2.03;;
41546;SDS011;27271;45.412;10.852;2024-03-02T05:06:02;4.78;;;2.22;;
41546;SDS011;27271;45.412;10.852;2024-03-02T05:09:24;7.60;;;2.35;;
41546;SDS011;27271;45.412;10.852;2024-03-02T05:12:46;8.75;;;2.08;;
41546;SDS011;27271;45.412;10.852;2024-03-02T05:16:18;6.63;;;2.40;;
41546;SDS011;27271;45.412;10.852;2024-03-02T05:19:41;4.32;;;1.77;;
41546;SDS011;27271;45.412;10.852;2024-03-02T05:23:03;5.72;;;1.60;;
41546;SDS011;27271;45.412;10.852;2024-03-02T05:26:25;7.95;;;2.72;;
41546;SDS011;27271;45.412;10.852;2024-03-02T05:29:47;7.22;;;2.72;;
41546;SDS011;27271;45.412;10.852;2024-03-02T05:33:09;6.78;;;2.33;;
41546;SDS011;27271;45.412;10.852;2024-03-02T05:36:31;10.60;;;2.70;;
41546;SDS011;27271;45.412;10.852;2024-03-02T05:39:53;6.65;;;2.58;;
41546;SDS011;27271;45.412;10.852;2024-03-02T05:43:15;10.48;;;2.58;;
41546;SDS011;27271;45.412;10.852;2024-03-02T05:46:38;7.47;;;2.55;;
41546;SDS011;27271;45.412;10.852;2024-03-02T05:50:02;10.98;;;2.72;;
41546;SDS011;27271;45.412;10.852;2024-03-02T05:53:25;6.38;;;2.38;;
41546;SDS011;27271;45.412;10.852;2024-03-02T05:56:47;8.57;;;1.65;;
41546;SDS011;27271;45.412;10.852;2024-03-02T06:00:10;8.05;;;2.15;;
41546;SDS011;27271;45.412;10.852;2024-03-02T06:03:33;7.30;;;1.88;;
41546;SDS011;27271;45.412;10.852;2024-03-02T06:06:56;8.18;;;2.05;;
41546;SDS011;27271;45.412;10.852;2024-03-02T06:10:18;5.53;;;2.47;;
41546;SDS011;27271;45.412;10.852;2024-03-02T06:13:40;9.02;;;2.17;;
41546;SDS011;27271;45.412;10.852;2024-03-02T06:17:02;7.18;;;1.85;;
41546;SDS011;27271;45.412;10.852;2024-03-02T06:20:25;4.13;;;1.77;;
41546;SDS011;27271;45.412;10.852;2024-03-02T06:23:48;5.10;;;2.22;;
41546;SDS011;27271;45.412;10.852;2024-03-02T06:27:10;3.72;;;1.77;;
41546;SDS011;27271;45.412;10.852;2024-03-02T06:30:32;6.18;;;1.98;;
41546;SDS011;27271;45.412;10.852;2024-03-02T06:33:54;4.68;;;1.80;;
41546;SDS011;27271;45.412;10.852;2024-03-02T06:37:16;8.48;;;2.00;;
41546;SDS011;27271;45.412;10.852;2024-03-02T06:40:38;1.92;;;1.15;;
41546;SDS011;27271;45.412;10.852;2024-03-02T06:44:01;5.15;;;1.83;;
41546;SDS011;27271;45.412;10.852;2024-03-02T06:47:23;6.97;;;2.17;;
41546;SDS011;27271;45.412;10.852;2024-03-02T06:50:46;4.38;;;1.45;;
41546;SDS011;27271;45.412;10.852;2024-03-02T06:54:12;7.25;;;1.73;;
41546;SDS011;27271;45.412;10.852;2024-03-02T06:57:34;3.63;;;1.88;;
41546;SDS011;27271;45.412;10.852;2024-03-02T07:00:56;6.00;;;2.30;;
41546;SDS011;27271;45.412;10.852;2024-03-02T07:04:18;3.20;;;1.70;;
41546;SDS011;27271;45.412;10.852;2024-03-02T07:07:40;7.45;;;2.42;;
41546;SDS011;27271;45.412;10.852;2024-03-02T07:11:02;5.53;;;1.60;;
41546;SDS011;27271;45.412;10.852;2024-03-02T07:14:24;2.85;;;1.95;;
41546;SDS011;27271;45.412;10.852;2024-03-02T07:18:06;5.72;;;1.95;;
41546;SDS011;27271;45.412;10.852;2024-03-02T07:21:28;8.25;;;2.42;;
41546;SDS011;27271;45.412;10.852;2024-03-02T07:24:50;12.23;;;2.90;;
41546;SDS011;27271;45.412;10.852;2024-03-02T07:28:12;7.57;;;2.97;;
41546;SDS011;27271;45.412;10.852;2024-03-02T07:31:36;7.38;;;2.83;;
41546;SDS011;27271;45.412;10.852;2024-03-02T07:34:58;6.82;;;2.45;;
41546;SDS011;27271;45.412;10.852;2024-03-02T07:38:20;5.07;;;1.65;;
41546;SDS011;27271;45.412;10.852;2024-03-02T07:41:43;6.03;;;2.83;;
41546;SDS011;27271;45.412;10.852;2024-03-02T07:45:06;6.40;;;2.55;;
41546;SDS011;27271;45.412;10.852;2024-03-02T07:48:29;9.13;;;2.78;;
41546;SDS011;27271;45.412;10.852;2024-03-02T07:51:52;11.10;;;3.38;;
41546;SDS011;27271;45.412;10.852;2024-03-02T07:55:14;11.10;;;2.85;;
41546;SDS011;27271;45.412;10.852;2024-03-02T07:58:36;4.82;;;2.33;;
41546;SDS011;27271;45.412;10.852;2024-03-02T08:01:58;8.27;;;3.00;;
41546;SDS011;27271;45.412;10.852;2024-03-02T08:05:21;7.57;;;3.22;;
41546;SDS011;27271;45.412;10.852;2024-03-02T08:08:43;7.15;;;3.47;;
41546;SDS011;27271;45.412;10.852;2024-03-02T08:12:05;8.75;;;3.20;;
41546;SDS011;27271;45.412;10.852;2024-03-02T08:15:27;6.60;;;3.00;;
41546;SDS011;27271;45.412;10.852;2024-03-02T08:18:49;5.22;;;3.05;;
41546;SDS011;27271;45.412;10.852;2024-03-02T08:22:12;12.60;;;3.72;;
41546;SDS011;27271;45.412;10.852;2024-03-02T08:25:34;7.18;;;2.92;;
41546;SDS011;27271;45.412;10.852;2024-03-02T08:28:56;8.98;;;3.25;;
41546;SDS011;27271;45.412;10.852;2024-03-02T08:32:23;8.48;;;2.10;;
41546;SDS011;27271;45.412;10.852;2024-03-02T08:35:45;4.05;;;1.58;;
41546;SDS011;27271;45.412;10.852;2024-03-02T08:39:08;8.15;;;2.35;;
41546;SDS011;27271;45.412;10.852;2024-03-02T08:42:37;6.80;;;2.42;;
41546;SDS011;27271;45.412;10.852;2024-03-02T08:45:59;5.85;;;2.10;;
41546;SDS011;27271;45.412;10.852;2024-03-02T08:49:21;2.90;;;2.10;;
41546;SDS011;27271;45.412;10.852;2024-03-02T08:52:43;6.82;;;1.95;;
41546;SDS011;27271;45.412;10.852;2024-03-02T08:56:05;3.75;;;1.95;;
41546;SDS011;27271;45.412;10.852;2024-03-02T08:59:28;3.05;;;1.73;;
41546;SDS011;27271;45.412;10.852;2024-03-02T09:02:50;2.83;;;2.10;;
41546;SDS011;27271;45.412;10.852;2024-03-02T09:06:12;5.45;;;2.38;;
41546;SDS011;27271;45.412;10.852;2024-03-02T09:09:35;4.90;;;1.73;;
41546;SDS011;27271;45.412;10.852;2024-03-02T09:13:00;2.85;;;1.60;;
41546;SDS011;27271;45.412;10.852;2024-03-02T09:16:22;2.45;;;1.50;;
41546;SDS011;27271;45.412;10.852;2024-03-02T09:19:46;5.03;;;1.67;;
41546;SDS011;27271;45.412;10.852;2024-03-02T09:23:14;4.13;;;1.70;;
41546;SDS011;27271;45.412;10.852;2024-03-02T09:26:39;2.67;;;1.40;;
41546;SDS011;27271;45.412;10.852;2024-03-02T09:30:02;4.32;;;2.00;;
41546;SDS011;27271;45.412;10.852;2024-03-02T09:33:25;3.97;;;1.70;;
41546;SDS011;27271;45.412;10.852;2024-03-02T09:36:48;4.45;;;1.77;;
41546;SDS011;27271;45.412;10.852;2024-03-02T09:40:13;5.22;;;1.98;;
41546;SDS011;27271;45.412;10.852;2024-03-02T09:43:35;5.35;;;2.05;;
41546;SDS011;27271;45.412;10.852;2024-03-02T09:46:57;3.28;;;1.75;;
41546;SDS011;27271;45.412;10.852;2024-03-02T09:50:19;6.90;;;2.30;;
41546;SDS011;27271;45.412;10.852;2024-03-02T09:53:41;4.78;;;1.70;;
41546;SDS011;27271;45.412;10.852;2024-03-02T09:57:04;7.88;;;2.85;;
41546;SDS011;27271;45.412;10.852;2024-03-02T10:00:26;4.90;;;2.35;;
41546;SDS011;27271;45.412;10.852;2024-03-02T10:03:49;3.83;;;1.90;;
41546;SDS011;27271;45.412;10.852;2024-03-02T10:14:05;8.23;;;3.42;;
41546;SDS011;27271;45.412;10.852;2024-03-02T10:20:54;6.65;;;2.97;;
41546;SDS011;27271;45.412;10.852;2024-03-02T10:24:20;5.13;;;2.75;;
41546;SDS011;27271;45.412;10.852;2024-03-02T10:27:43;7.45;;;2.55;;
41546;SDS011;27271;45.412;10.852;2024-03-02T10:31:05;8.20;;;2.97;;
41546;SDS011;27271;45.412;10.852;2024-03-02T10:34:31;8.40;;;3.00;;
41546;SDS011;27271;45.412;10.852;2024-03-02T10:37:55;3.60;;;2.55;;
41546;SDS011;27271;45.412;10.852;2024-03-02T10:41:18;4.32;;;2.80;;
41546;SDS011;27271;45.412;10.852;2024-03-02T10:44:41;5.68;;;3.00;;
41546;SDS011;27271;45.412;10.852;2024-03-02T10:48:08;4.80;;;2.83;;
41546;SDS011;27271;45.412;10.852;2024-03-02T10:51:33;8.38;;;3.10;;
41546;SDS011;27271;45.412;10.852;2024-03-02T10:54:58;6.05;;;2.65;;
41546;SDS011;27271;45.412;10.852;2024-03-02T10:58:20;5.55;;;2.78;;
41546;SDS011;27271;45.412;10.852;2024-03-02T11:01:47;6.95;;;2.78;;
41546;SDS011;27271;45.412;10.852;2024-03-02T11:05:14;3.92;;;2.65;;
41546;SDS011;27271;45.412;10.852;2024-03-02T11:08:50;5.78;;;2.95;;
41546;SDS011;27271;45.412;10.852;2024-03-02T11:12:31;3.50;;;2.40;;
41546;SDS011;27271;45.412;10.852;2024-03-02T11:16:27;5.93;;;2.63;;
41546;SDS011;27271;45.412;10.852;2024-03-02T11:19:58;8.38;;;3.47;;
41546;SDS011;27271;45.412;10.852;2024-03-02T11:23:33;6.95;;;2.78;;
41546;SDS011;27271;45.412;10.852;2024-03-02T11:26:57;4.85;;;2.50;;
41546;SDS011;27271;45.412;10.852;2024-03-02T11:33:54;4.10;;;2.10;;
41546;SDS011;27271;45.412;10.852;2024-03-02T11:37:17;6.88;;;2.65;;
41546;SDS011;27271;45.412;10.852;2024-03-02T11:40:40;4.05;;;2.30;;
41546;SDS011;27271;45.412;10.852;2024-03-02T11:44:03;6.32;;;2.83;;
41546;SDS011;27271;45.412;10.852;2024-03-02T11:47:26;5.60;;;2.72;;
41546;SDS011;27271;45.412;10.852;2024-03-02T11:50:58;6.07;;;3.22;;
41546;SDS011;27271;45.412;10.852;2024-03-02T11:54:21;6.20;;;3.20;;
41546;SDS011;27271;45.412;10.852;2024-03-02T11:57:43;8.40;;;3.00;;
41546;SDS011;27271;45.412;10.852;2024-03-02T12:01:05;4.18;;;2.70;;
41546;SDS011;27271;45.412;10.852;2024-03-02T12:04:28;5.10;;;2.40;;
41546;SDS011;27271;45.412;10.852;2024-03-02T12:07:58;7.53;;;2.75;;
41546;SDS011;27271;45.412;10.852;2024-03-02T12:11:30;5.30;;;2.60;;
41546;SDS011;27271;45.412;10.852;2024-03-02T12:14:54;6.43;;;3.60;;
41546;SDS011;27271;45.412;10.852;2024-03-02T12:18:17;5.95;;;3.13;;
41546;SDS011;27271;45.412;10.852;2024-03-02T12:21:40;5.88;;;3.42;;
41546;SDS011;27271;45.412;10.852;2024-03-02T12:25:05;4.32;;;3.08;;
41546;SDS011;27271;45.412;10.852;2024-03-02T12:28:27;9.48;;;4.22;;
41546;SDS011;27271;45.412;10.852;2024-03-02T12:31:52;10.93;;;4.45;;
41546;SDS011;27271;45.412;10.852;2024-03-02T12:35:22;6.78;;;4.43;;
41546;SDS011;27271;45.412;10.852;2024-03-02T12:38:46;7.72;;;4.88;;
41546;SDS011;27271;45.412;10.852;2024-03-02T12:42:08;6.10;;;4.05;;
41546;SDS011;27271;45.412;10.852;2024-03-02T12:45:37;7.97;;;4.00;;
41546;SDS011;27271;45.412;10.852;2024-03-02T12:49:04;10.27;;;4.57;;
41546;SDS011;27271;45.412;10.852;2024-03-02T12:52:32;7.40;;;4.18;;
41546;SDS011;27271;45.412;10.852;2024-03-02T12:55:55;11.43;;;3.70;;
41546;SDS011;27271;45.412;10.852;2024-03-02T12:59:18;9.95;;;3.75;;
41546;SDS011;27271;45.412;10.852;2024-03-02T13:02:43;5.15;;;3.35;;
41546;SDS011;27271;45.412;10.852;2024-03-02T13:06:08;5.85;;;3.70;;
41546;SDS011;27271;45.412;10.852;2024-03-02T13:09:34;7.78;;;3.72;;
41546;SDS011;27271;45.412;10.852;2024-03-02T13:12:56;6.28;;;3.70;;
41546;SDS011;27271;45.412;10.852;2024-03-02T13:16:19;4.72;;;3.55;;
41546;SDS011;27271;45.412;10.852;2024-03-02T13:19:57;6.35;;;3.72;;
41546;SDS011;27271;45.412;10.852;2024-03-02T13:23:20;11.80;;;4.15;;
41546;SDS011;27271;45.412;10.852;2024-03-02T13:26:42;6.63;;;3.33;;
41546;SDS011;27271;45.412;10.852;2024-03-02T13:30:04;7.55;;;3.35;;
41546;SDS011;27271;45.412;10.852;2024-03-02T13:33:27;7.03;;;3.38;;
41546;SDS011;27271;45.412;10.852;2024-03-02T13:36:49;6.43;;;3.20;;
41546;SDS011;27271;45.412;10.852;2024-03-02T13:40:12;3.53;;;2.70;;
41546;SDS011;27271;45.412;10.852;2024-03-02T13:43:40;3.22;;;2.25;;
41546;SDS011;27271;45.412;10.852;2024-03-02T13:47:02;2.20;;;1.90;;
41546;SDS011;27271;45.412;10.852;2024-03-02T13:50:25;3.28;;;1.70;;
41546;SDS011;27271;45.412;10.852;2024-03-02T13:53:47;4.47;;;2.60;;
41546;SDS011;27271;45.412;10.852;2024-03-02T13:57:10;3.10;;;1.83;;
41546;SDS011;27271;45.412;10.852;2024-03-02T14:00:32;2.20;;;1.23;;
41546;SDS011;27271;45.412;10.852;2024-03-02T14:03:55;5.03;;;1.58;;
41546;SDS011;27271;45.412;10.852;2024-03-02T14:07:17;2.63;;;1.48;;
41546;SDS011;27271;45.412;10.852;2024-03-02T14:10:39;3.17;;;1.27;;
41546;SDS011;27271;45.412;10.852;2024-03-02T14:14:01;5.05;;;1.77;;
41546;SDS011;27271;45.412;10.852;2024-03-02T14:17:24;4.75;;;1.70;;
41546;SDS011;27271;45.412;10.852;2024-03-02T14:20:47;3.13;;;1.60;;
41546;SDS011;27271;45.412;10.852;2024-03-02T14:24:14;3.78;;;2.00;;
41546;SDS011;27271;45.412;10.852;2024-03-02T14:27:36;3.45;;;2.10;;
41546;SDS011;27271;45.412;10.852;2024-03-02T14:31:18;2.80;;;1.92;;
41546;SDS011;27271;45.412;10.852;2024-03-02T14:34:41;3.90;;;2.30;;
41546;SDS011;27271;45.412;10.852;2024-03-02T14:38:03;6.53;;;2.42;;
41546;SDS011;27271;45.412;10.852;2024-03-02T14:41:25;4.50;;;2.40;;
41546;SDS011;27271;45.412;10.852;2024-03-02T14:44:47;4.18;;;2.83;;
41546;SDS011;27271;45.412;10.852;2024-03-02T14:48:10;3.22;;;2.20;;
41546;SDS011;27271;45.412;10.852;2024-03-02T14:51:32;4.70;;;3.10;;
41546;SDS011;27271;45.412;10.852;2024-03-02T14:54:54;4.80;;;3.22;;
41546;SDS011;27271;45.412;10.852;2024-03-02T14:58:16;5.43;;;3.03;;
41546;SDS011;27271;45.412;10.852;2024-03-02T15:01:38;4.47;;;3.13;;
41546;SDS011;27271;45.412;10.852;2024-03-02T15:05:01;6.95;;;3.92;;
41546;SDS011;27271;45.412;10.852;2024-03-02T15:08:24;4.97;;;3.63;;
41546;SDS011;27271;45.412;10.852;2024-03-02T15:11:46;6.32;;;3.63;;
41546;SDS011;27271;45.412;10.852;2024-03-02T15:15:08;6.93;;;3.75;;
41546;SDS011;27271;45.412;10.852;2024-03-02T15:18:33;7.88;;;4.03;;
41546;SDS011;27271;45.412;10.852;2024-03-02T15:21:56;9.77;;;3.85;;
41546;SDS011;27271;45.412;10.852;2024-03-02T15:25:18;5.38;;;3.72;;
41546;SDS011;27271;45.412;10.852;2024-03-02T15:28:40;5.72;;;3.15;;
41546;SDS011;27271;45.412;10.852;2024-03-02T15:32:03;5.93;;;3.08;;
41546;SDS011;27271;45.412;10.852;2024-03-02T15:35:28;6.28;;;3.25;;
41546;SDS011;27271;45.412;10.852;2024-03-02T15:38:53;3.67;;;2.25;;
41546;SDS011;27271;45.412;10.852;2024-03-02T15:42:15;4.45;;;2.33;;
41546;SDS011;27271;45.412;10.852;2024-03-02T15:45:37;3.25;;;2.30;;
41546;SDS011;27271;45.412;10.852;2024-03-02T15:48:59;5.85;;;3.03;;
41546;SDS011;27271;45.412;10.852;2024-03-02T15:52:25;6.68;;;3.13;;
41546;SDS011;27271;45.412;10.852;2024-03-02T15:55:47;3.58;;;2.67;;
41546;SDS011;27271;45.412;10.852;2024-03-02T15:59:09;5.45;;;2.95;;
41546;SDS011;27271;45.412;10.852;2024-03-02T16:02:31;4.10;;;3.58;;
41546;SDS011;27271;45.412;10.852;2024-03-02T16:05:53;6.68;;;3.92;;
41546;SDS011;27271;45.412;10.852;2024-03-02T16:09:15;10.55;;;3.50;;
41546;SDS011;27271;45.412;10.852;2024-03-02T16:12:37;5.60;;;3.17;;
41546;SDS011;27271;45.412;10.852;2024-03-02T16:16:00;7.30;;;3.22;;
41546;SDS011;27271;45.412;10.852;2024-03-02T16:19:22;7.30;;;3.55;;
41546;SDS011;27271;45.412;10.852;2024-03-02T16:22:53;6.38;;;3.95;;
41546;SDS011;27271;45.412;10.852;2024-03-02T16:26:16;6.25;;;3.85;;
41546;SDS011;27271;45.412;10.852;2024-03-02T16:29:38;7.68;;;3.50;;
41546;SDS011;27271;45.412;10.852;2024-03-02T16:33:00;4.15;;;2.88;;
41546;SDS011;27271;45.412;10.852;2024-03-02T16:36:22;4.13;;;2.50;;
41546;SDS011;27271;45.412;10.852;2024-03-02T16:39:45;3.65;;;2.80;;
41546;SDS011;27271;45.412;10.852;2024-03-02T16:43:08;5.05;;;3.20;;
41546;SDS011;27271;45.412;10.852;2024-03-02T16:46:30;5.70;;;3.08;;
41546;SDS011;27271;45.412;10.852;2024-03-02T16:49:53;4.68;;;3.30;;
41546;SDS011;27271;45.412;10.852;2024-03-02T16:53:20;6.25;;;3.42;;
41546;SDS011;27271;45.412;10.852;2024-03-02T16:56:43;6.28;;;3.42;;
41546;SDS011;27271;45.412;10.852;2024-03-02T17:00:07;9.07;;;3.78;;
41546;SDS011;27271;45.412;10.852;2024-03-02T17:03:30;5.60;;;3.53;;
41546;SDS011;27271;45.412;10.852;2024-03-02T17:06:52;7.13;;;3.60;;
41546;SDS011;27271;45.412;10.852;2024-03-02T17:10:14;4.55;;;3.22;;
41546;SDS011;27271;45.412;10.852;2024-03-02T17:13:37;6.28;;;3.85;;
41546;SDS011;27271;45.412;10.852;2024-03-02T17:16:59;8.40;;;4.68;;
41546;SDS011;27271;45.412;10.852;2024-03-02T17:20:22;6.82;;;3.78;;
41546;SDS011;27271;45.412;10.852;2024-03-02T17:23:45;5.40;;;3.70;;
41546;SDS011;27271;45.412;10.852;2024-03-02T17:27:07;5.32;;;3.53;;
41546;SDS011;27271;45.412;10.852;2024-03-02T17:30:29;6.75;;;4.13;;
41546;SDS011;27271;45.412;10.852;2024-03-02T17:33:51;7.78;;;4.32;;
41546;SDS011;27271;45.412;10.852;2024-03-02T17:37:14;9.10;;;5.00;;
41546;SDS011;27271;45.412;10.852;2024-03-02T17:40:36;7.95;;;4.80;;
41546;SDS011;27271;45.412;10.852;2024-03-02T17:43:58;7.00;;;4.22;;
41546;SDS011;27271;45.412;10.852;2024-03-02T17:47:20;9.88;;;4.90;;
41546;SDS011;27271;45.412;10.852;2024-03-02T17:50:43;8.82;;;5.57;;
41546;SDS011;27271;45.412;10.852;2024-03-02T17:54:05;7.55;;;4.90;;
41546;SDS011;27271;45.412;10.852;2024-03-02T17:57:27;7.38;;;4.97;;
41546;SDS011;27271;45.412;10.852;2024-03-02T18:00:50;8.43;;;5.47;;
41546;SDS011;27271;45.412;10.852;2024-03-02T18:04:13;8.77;;;5.93;;
41546;SDS011;27271;45.412;10.852;2024-03-02T18:07:36;11.00;;;5.60;;
41546;SDS011;27271;45.412;10.852;2024-03-02T18:10:59;10.43;;;6.32;;
41546;SDS011;27271;45.412;10.852;2024-03-02T18:14:22;9.80;;;6.07;;
41546;SDS011;27271;45.412;10.852;2024-03-02T18:17:45;10.63;;;7.30;;
41546;SDS011;27271;45.412;10.852;2024-03-02T18:21:10;10.95;;;6.80;;
41546;SDS011;27271;45.412;10.852;2024-03-02T18:24:36;12.98;;;7.57;;
41546;SDS011;27271;45.412;10.852;2024-03-02T18:27:59;11.30;;;7.30;;
41546;SDS011;27271;45.412;10.852;2024-03-02T18:31:21;13.35;;;7.50;;
41546;SDS011;27271;45.412;10.852;2024-03-02T18:34:43;15.15;;;7.80;;
41546;SDS011;27271;45.412;10.852;2024-03-02T18:38:05;11.73;;;7.32;;
41546;SDS011;27271;45.412;10.852;2024-03-02T18:41:27;12.05;;;6.72;;
41546;SDS011;27271;45.412;10.852;2024-03-02T18:44:50;11.35;;;7.28;;
41546;SDS011;27271;45.412;10.852;2024-03-02T18:48:12;13.85;;;8.73;;
41546;SDS011;27271;45.412;10.852;2024-03-02T18:51:34;13.07;;;8.57;;
41546;SDS011;27271;45.412;10.852;2024-03-02T18:54:57;13.00;;;8.48;;
41546;SDS011;27271;45.412;10.852;2024-03-02T18:58:19;14.13;;;8.73;;
41546;SDS011;27271;45.412;10.852;2024-03-02T19:01:41;13.02;;;7.97;;
41546;SDS011;27271;45.412;10.852;2024-03-02T19:05:04;12.35;;;7.68;;
41546;SDS011;27271;45.412;10.852;2024-03-02T19:08:27;13.75;;;7.70;;
41546;SDS011;27271;45.412;10.852;2024-03-02T19:11:50;12.13;;;8.18;;
41546;SDS011;27271;45.412;10.852;2024-03-02T19:15:12;11.57;;;7.53;;
41546;SDS011;27271;45.412;10.852;2024-03-02T19:18:35;13.55;;;8.45;;
41546;SDS011;27271;45.412;10.852;2024-03-02T19:22:00;11.70;;;7.75;;
41546;SDS011;27271;45.412;10.852;2024-03-02T19:25:31;13.45;;;7.80;;
41546;SDS011;27271;45.412;10.852;2024-03-02T19:28:53;15.77;;;8.50;;
41546;SDS011;27271;45.412;10.852;2024-03-02T19:32:15;14.73;;;8.48;;
41546;SDS011;27271;45.412;10.852;2024-03-02T19:35:42;18.67;;;13.20;;
41546;SDS011;27271;45.412;10.852;2024-03-02T19:39:04;19.52;;;13.82;;
41546;SDS011;27271;45.412;10.852;2024-03-02T19:42:26;13.85;;;9.02;;
41546;SDS011;27271;45.412;10.852;2024-03-02T19:45:49;17.70;;;10.88;;
41546;SDS011;27271;45.412;10.852;2024-03-02T19:49:11;20.23;;;10.85;;
41546;SDS011;27271;45.412;10.852;2024-03-02T19:52:34;18.52;;;11.63;;
41546;SDS011;27271;45.412;10.852;2024-03-02T19:55:56;21.75;;;13.60;;
41546;SDS011;27271;45.412;10.852;2024-03-02T19:59:18;16.88;;;11.07;;
41546;SDS011;27271;45.412;10.852;2024-03-02T20:02:41;18.48;;;10.98;;
41546;SDS011;27271;45.412;10.852;2024-03-02T20:06:04;17.75;;;10.05;;
41546;SDS011;27271;45.412;10.852;2024-03-02T20:09:26;16.95;;;11.27;;
41546;SDS011;27271;45.412;10.852;2024-03-02T20:12:49;16.80;;;12.52;;
41546;SDS011;27271;45.412;10.852;2024-03-02T20:16:11;17.58;;;11.70;;